Time;durP1;ratioP1;P1;durP2;ratioP2;P2;SDS_P1;SDS_P2;PMS_P1;PMS_P2;Temp;Humidity;BMP_temperature;BMP_pressure;BME280_temperature;BME280_humidity;BME280_pressure;Samples;Min_cycle;Max_cycle;Signal;HPM_P1;HPM_P2
2022/08/27 00:01:23;;;;;;;7.88;3.60;;;;;;;16.40;87.21;101917.63;5064439;28;20170;-63
2022/08/27 00:03:48;;;;;;;10.77;4.28;;;;;;;16.38;87.09;101919.50;5065874;28;20108;-62
2022/08/27 00:06:15;;;;;;;7.78;3.63;;;;;;;16.37;87.24;101920.41;5064758;28;20024;-61
2022/08/27 00:08:42;;;;;;;8.15;3.58;;;;;;;16.36;87.26;101924.88;5064869;28;20132;-63
2022/08/27 00:11:08;;;;;;;5.80;3.70;;;;;;;16.37;87.25;101918.63;5064799;28;20044;-62
2022/08/27 00:13:34;;;;;;;7.30;4.18;;;;;;;16.34;87.43;101915.25;5065195;28;20107;-62
2022/08/27 00:15:59;;;;;;;6.55;4.07;;;;;;;16.29;87.72;101923.41;5065471;28;20024;-62
2022/08/27 00:18:25;;;;;;;9.25;3.58;;;;;;;16.27;87.71;101915.50;5064380;28;20040;-61
2022/08/27 00:20:51;;;;;;;10.88;4.05;;;;;;;16.22;87.64;101917.47;5065670;28;20025;-63
2022/08/27 00:23:16;;;;;;;7.00;4.20;;;;;;;16.18;87.58;101918.53;5045994;28;20033;-61
2022/08/27 00:25:41;;;;;;;10.07;4.32;;;;;;;16.16;87.74;101912.38;5064588;28;20060;-61
2022/08/27 00:28:07;;;;;;;8.23;4.30;;;;;;;16.14;88.04;101920.44;5064338;28;20127;-63
2022/08/27 00:30:32;;;;;;;7.78;4.20;;;;;;;16.13;88.09;101913.38;5065216;28;20063;-61
2022/08/27 00:32:57;;;;;;;10.35;3.95;;;;;;;16.17;87.92;101907.00;5046646;28;20032;-62
2022/08/27 00:35:23;;;;;;;8.10;4.20;;;;;;;16.15;88.03;101903.56;5065515;28;20021;-62
2022/08/27 00:37:49;;;;;;;8.45;4.00;;;;;;;16.06;88.18;101917.22;5064677;28;20032;-62
2022/08/27 00:40:17;;;;;;;5.97;3.30;;;;;;;16.01;88.27;101908.56;5064465;28;20027;-62
2022/08/27 00:42:44;;;;;;;8.07;3.90;;;;;;;15.98;88.19;101909.56;5064366;28;20077;-62
2022/08/27 00:45:11;;;;;;;9.10;3.67;;;;;;;15.95;88.48;101908.78;5064193;28;20064;-62
2022/08/27 00:47:43;;;;;;;6.70;4.20;;;;;;;15.97;88.50;101906.94;5064893;28;20029;-62
2022/08/27 00:50:13;;;;;;;8.77;3.95;;;;;;;15.99;88.47;101911.31;5045868;28;20024;-62
2022/08/27 00:52:50;;;;;;;8.50;3.65;;;;;;;15.99;88.58;101905.13;5044759;28;20037;-62
2022/08/27 00:55:34;;;;;;;8.88;4.82;;;;;;;15.92;89.05;101915.94;5043598;28;20025;-62
2022/08/27 00:58:20;;;;;;;13.10;4.00;;;;;;;15.85;89.51;101909.16;5027342;28;20455;-63
2022/08/27 01:00:46;;;;;;;9.65;4.38;;;;;;;15.82;89.98;101909.25;5039395;28;20414;-63
2022/08/27 01:03:12;;;;;;;5.95;3.85;;;;;;;15.77;90.02;101909.44;5056529;22;20044;-61
2022/08/27 01:05:38;;;;;;;10.15;4.30;;;;;;;15.74;90.36;101912.22;5063129;28;20108;-61
2022/08/27 01:08:08;;;;;;;9.90;3.90;;;;;;;15.73;90.54;101907.84;5047233;28;20066;-61
2022/08/27 01:10:34;;;;;;;7.88;4.05;;;;;;;15.76;90.25;101910.38;5045710;28;20036;-64
2022/08/27 01:12:59;;;;;;;9.25;4.35;;;;;;;15.72;90.61;101918.53;5045678;28;20032;-61
2022/08/27 01:15:26;;;;;;;6.70;3.97;;;;;;;15.69;90.64;101914.19;5047000;28;20028;-61
2022/08/27 01:17:52;;;;;;;8.13;4.20;;;;;;;15.64;91.00;101914.38;5046261;28;20432;-62
2022/08/27 01:20:22;;;;;;;8.38;4.22;;;;;;;15.63;91.22;101915.28;5046140;28;20095;-61
2022/08/27 01:23:13;;;;;;;8.50;4.53;;;;;;;15.59;91.36;101907.50;5063868;28;20074;-61
2022/08/27 01:25:41;;;;;;;9.82;4.45;;;;;;;15.56;91.34;101910.28;5063568;28;20052;-61
2022/08/27 01:28:06;;;;;;;7.82;4.00;;;;;;;15.53;91.48;101904.16;5063563;28;20039;-63
2022/08/27 01:30:32;;;;;;;8.27;3.70;;;;;;;15.52;91.45;101913.03;5046277;28;20017;-61
2022/08/27 01:32:57;;;;;;;6.38;3.63;;;;;;;15.52;91.58;101909.50;5063295;28;20032;-62
2022/08/27 01:35:23;;;;;;;4.53;3.35;;;;;;;15.57;91.07;101898.72;5064481;28;20032;-63
2022/08/27 01:37:50;;;;;;;7.47;3.63;;;;;;;15.60;91.21;101903.91;5048933;28;20040;-61
2022/08/27 01:40:18;;;;;;;6.20;3.42;;;;;;;15.65;91.06;101912.56;5026184;28;20025;-59
2022/08/27 01:42:45;;;;;;;12.15;4.70;;;;;;;15.60;91.24;101904.78;5043436;28;20691;-61
2022/08/27 01:45:13;;;;;;;5.28;3.95;;;;;;;15.62;90.91;101905.56;5061355;28;20036;-62
2022/08/27 01:47:39;;;;;;;5.50;3.92;;;;;;;15.63;90.85;101904.66;5045776;28;20127;-62
2022/08/27 01:50:21;;;;;;;7.75;4.28;;;;;;;15.61;91.10;101901.19;5063212;28;20716;-62
2022/08/27 01:52:46;;;;;;;7.30;3.70;;;;;;;15.63;90.95;101903.81;5063408;28;20024;-61
2022/08/27 01:55:14;;;;;;;8.90;4.28;;;;;;;15.65;91.11;101908.13;5063000;28;20035;-62
2022/08/27 01:57:41;;;;;;;7.95;3.95;;;;;;;15.60;91.11;101910.09;5045558;28;20034;-62
2022/08/27 02:00:11;;;;;;;7.38;3.50;;;;;;;15.56;91.22;101905.81;5063151;28;20029;-62
2022/08/27 02:02:37;;;;;;;9.90;4.07;;;;;;;15.46;91.36;101897.34;5063251;28;20043;-63
2022/08/27 02:05:03;;;;;;;6.55;3.75;;;;;;;15.41;91.58;101909.91;5063132;28;20651;-62
2022/08/27 02:07:28;;;;;;;7.35;4.20;;;;;;;15.42;91.96;101909.00;5062845;28;20028;-62
2022/08/27 02:09:54;;;;;;;8.10;4.00;;;;;;;15.44;91.82;101900.97;5063261;28;20082;-62
2022/08/27 02:12:19;;;;;;;8.60;4.32;;;;;;;15.41;91.79;101902.81;5062567;28;20024;-63
2022/08/27 02:14:44;;;;;;;7.43;3.78;;;;;;;15.39;91.59;101894.03;5063501;28;20024;-63
2022/08/27 02:17:11;;;;;;;8.23;4.38;;;;;;;15.45;91.96;101894.75;5062583;28;20029;-62
2022/08/27 02:19:36;;;;;;;7.72;4.30;;;;;;;15.41;92.17;101897.50;5063338;28;20025;-62
2022/08/27 02:22:02;;;;;;;12.45;4.43;;;;;;;15.44;91.81;101898.31;5061076;28;20117;-63
2022/08/27 02:24:27;;;;;;;7.78;4.10;;;;;;;15.44;92.05;101898.31;5063188;28;20036;-62
2022/08/27 02:26:56;;;;;;;12.55;3.97;;;;;;;15.43;91.90;101897.44;5061690;28;20111;-63
2022/08/27 02:29:23;;;;;;;10.52;3.90;;;;;;;15.45;91.33;101890.31;5063853;28;20048;-62
2022/08/27 02:31:48;;;;;;;8.38;4.82;;;;;;;15.50;91.13;101898.09;5062783;28;20066;-60
2022/08/27 02:34:14;;;;;;;8.82;4.13;;;;;;;15.51;90.79;101898.00;5066524;28;20033;-62
2022/08/27 02:36:39;;;;;;;9.00;4.25;;;;;;;15.55;91.01;101893.47;5066231;28;20024;-61
2022/08/27 02:39:05;;;;;;;7.32;4.00;;;;;;;15.58;90.87;101892.47;5065563;28;20047;-62
2022/08/27 02:41:31;;;;;;;7.13;3.88;;;;;;;15.47;90.92;101887.59;5065729;28;20024;-62
2022/08/27 02:43:56;;;;;;;11.27;4.50;;;;;;;15.43;90.82;101884.16;5065412;28;20039;-61
2022/08/27 02:46:21;;;;;;;11.27;4.40;;;;;;;15.37;91.10;101882.63;5066989;28;20035;-62
2022/08/27 02:48:47;;;;;;;11.85;4.35;;;;;;;15.33;90.86;101881.00;5066010;28;20028;-62
2022/08/27 02:51:12;;;;;;;6.45;4.10;;;;;;;15.29;90.87;101874.06;5065920;28;20036;-60
2022/08/27 02:53:38;;;;;;;8.43;3.85;;;;;;;15.27;90.89;101873.25;5066389;28;20024;-60
2022/08/27 02:56:05;;;;;;;8.10;4.43;;;;;;;15.24;91.16;101876.03;5064291;28;20039;-63
2022/08/27 02:58:32;;;;;;;7.95;4.70;;;;;;;15.24;91.44;101882.22;5065555;28;20040;-62
2022/08/27 03:00:57;;;;;;;8.70;5.13;;;;;;;15.16;91.59;101868.34;5066191;28;20099;-61
2022/08/27 03:03:23;;;;;;;7.72;4.30;;;;;;;15.12;91.22;101867.59;5066021;28;20050;-63
2022/08/27 03:05:48;;;;;;;7.25;3.67;;;;;;;15.16;91.56;101873.66;5047576;28;20115;-62
2022/08/27 03:08:13;;;;;;;7.10;4.35;;;;;;;15.14;91.71;101868.41;5065467;28;21497;-62
2022/08/27 03:10:39;;;;;;;9.10;4.45;;;;;;;15.11;91.83;101871.16;5064712;28;20035;-63
2022/08/27 03:13:05;;;;;;;7.50;4.38;;;;;;;15.11;92.02;101865.84;5066648;28;20070;-61
2022/08/27 03:15:30;;;;;;;10.02;4.97;;;;;;;15.14;91.87;101865.75;5065398;28;20029;-61
2022/08/27 03:20:41;;;;;;;6.90;3.95;;;;;;;15.16;91.75;101871.00;5065582;28;20548;-62
2022/08/27 03:23:07;;;;;;;7.35;4.07;;;;;;;15.14;92.01;101871.06;5066315;28;20024;-62
2022/08/27 03:25:33;;;;;;;7.82;4.45;;;;;;;15.13;92.38;101866.69;5063738;28;20532;-63
2022/08/27 03:27:58;;;;;;;7.43;4.57;;;;;;;15.13;92.25;101872.00;5065917;28;20028;-62
2022/08/27 03:30:24;;;;;;;7.47;4.60;;;;;;;15.14;92.25;101870.22;5065288;28;20074;-63
2022/08/27 03:32:50;;;;;;;7.78;4.78;;;;;;;15.14;92.50;101876.38;5065875;28;20029;-63
2022/08/27 03:35:16;;;;;;;10.48;4.43;;;;;;;15.15;92.35;101864.81;5065724;28;20032;-63
2022/08/27 03:37:42;;;;;;;8.35;3.88;;;;;;;15.20;92.02;101858.50;5065300;28;20364;-64
2022/08/27 03:40:08;;;;;;;9.98;4.03;;;;;;;15.23;92.37;101863.69;5064948;28;20043;-62
2022/08/27 03:42:34;;;;;;;5.88;3.40;;;;;;;15.23;92.45;101859.22;5064284;28;20032;-62
2022/08/27 03:44:59;;;;;;;6.80;3.63;;;;;;;15.26;92.34;101861.78;5065234;28;20028;-64
2022/08/27 03:47:25;;;;;;;4.07;3.08;;;;;;;15.29;92.07;101860.78;5064972;28;20025;-62
2022/08/27 03:49:50;;;;;;;4.43;2.53;;;;;;;15.32;91.99;101863.31;5065929;28;20016;-63
2022/08/27 03:52:15;;;;;;;8.82;3.33;;;;;;;15.31;91.88;101864.25;5064983;28;20497;-63
2022/08/27 03:54:41;;;;;;;7.13;3.60;;;;;;;15.27;91.74;101866.16;5065599;28;20032;-64
2022/08/27 03:57:07;;;;;;;5.57;3.75;;;;;;;15.25;91.72;101869.78;5063980;28;20525;-62
2022/08/27 03:59:32;;;;;;;7.20;3.50;;;;;;;15.25;91.99;101869.78;5066019;28;20035;-61
2022/08/27 04:01:58;;;;;;;10.32;4.45;;;;;;;15.22;92.02;101861.94;5064497;28;20083;-61
2022/08/27 04:04:23;;;;;;;7.72;3.78;;;;;;;15.20;91.95;101869.09;5066152;28;20025;-56
2022/08/27 04:06:49;;;;;;;8.68;3.90;;;;;;;15.15;92.15;101861.31;5064933;28;20028;-59
2022/08/27 04:09:15;;;;;;;6.90;3.53;;;;;;;15.14;92.06;101862.25;5064890;28;20040;-62
2022/08/27 04:11:40;;;;;;;9.02;3.70;;;;;;;15.11;92.05;101855.25;5063249;28;20103;-63
2022/08/27 04:14:06;;;;;;;7.68;3.88;;;;;;;15.19;92.02;101864.69;5048919;28;20076;-61
2022/08/27 04:16:32;;;;;;;6.95;3.85;;;;;;;15.14;92.39;101863.09;5044323;28;20507;-62
2022/08/27 04:18:57;;;;;;;5.50;3.67;;;;;;;15.07;92.25;101852.75;5057621;28;20120;-61
2022/08/27 04:21:23;;;;;;;9.63;4.32;;;;;;;15.04;92.62;101856.38;5064927;28;20120;-59
2022/08/27 04:23:48;;;;;;;6.10;3.85;;;;;;;15.00;92.35;101854.78;5064761;28;20095;-63
2022/08/27 04:26:14;;;;;;;7.15;4.00;;;;;;;15.03;92.70;101863.47;5060781;28;20651;-63
2022/08/27 04:28:39;;;;;;;8.07;4.03;;;;;;;15.09;92.80;101861.53;5064738;28;20501;-64
2022/08/27 04:31:06;;;;;;;5.55;3.55;;;;;;;15.09;92.85;101861.53;5031081;28;20016;-63
2022/08/27 04:33:31;;;;;;;8.65;3.53;;;;;;;15.09;92.54;101869.50;5064212;28;20582;-62
2022/08/27 04:35:58;;;;;;;9.20;3.55;;;;;;;15.06;92.77;101873.13;5065263;28;20115;-62
2022/08/27 04:38:23;;;;;;;11.02;3.92;;;;;;;15.10;92.64;101868.56;5065106;28;20518;-62
2022/08/27 04:43:32;;;;;;;8.75;3.40;;;;;;;15.03;92.70;101876.75;5051385;28;20073;-63
2022/08/27 04:45:58;;;;;;;11.02;4.43;;;;;;;15.00;92.88;101889.28;5065130;28;20024;-63
2022/08/27 04:48:24;;;;;;;4.80;3.80;;;;;;;14.99;93.12;101884.91;5064744;28;20095;-59
2022/08/27 04:50:49;;;;;;;6.38;3.88;;;;;;;14.95;93.26;101891.22;5065377;28;20213;-64
2022/08/27 04:53:15;;;;;;;10.30;4.05;;;;;;;14.93;93.64;101885.97;5064752;28;20359;-64
2022/08/27 04:55:46;;;;;;;5.13;3.95;;;;;;;14.99;93.88;101884.91;5044813;28;20012;-63
2022/08/27 04:58:12;;;;;;;7.13;3.20;;;;;;;15.07;94.19;101885.47;5063727;28;20025;-63
2022/08/27 05:00:47;;;;;;;5.05;3.63;;;;;;;15.18;94.33;101889.53;5064589;28;20028;-63
2022/08/27 05:03:14;;;;;;;6.75;3.92;;;;;;;15.21;94.16;101886.75;5064201;28;20431;-62
2022/08/27 05:05:40;;;;;;;10.65;4.38;;;;;;;15.29;94.01;101889.97;5064241;28;20028;-61
2022/08/27 05:08:06;;;;;;;12.13;3.78;;;;;;;15.38;93.72;101894.97;5044901;28;20628;-62
2022/08/27 05:10:41;;;;;;;10.85;4.03;;;;;;;15.49;93.12;101891.03;5063298;28;20074;-62
2022/08/27 05:13:07;;;;;;;5.50;3.60;;;;;;;15.57;92.77;101896.06;5045387;28;20776;-63
2022/08/27 05:15:33;;;;;;;7.93;3.75;;;;;;;15.68;92.61;101893.00;5064108;28;20115;-62
2022/08/27 05:17:59;;;;;;;6.53;3.65;;;;;;;15.72;92.20;101894.59;5063359;28;20119;-61
2022/08/27 05:20:29;;;;;;;7.15;3.60;;;;;;;15.86;91.73;101896.72;5064331;28;20291;-62
2022/08/27 05:22:55;;;;;;;9.30;3.38;;;;;;;15.97;90.96;101901.63;5063076;28;20032;-59
2022/08/27 05:25:20;;;;;;;6.05;2.97;;;;;;;16.04;90.60;101892.47;5064159;28;20028;-60
2022/08/27 05:27:46;;;;;;;8.40;4.10;;;;;;;16.16;90.38;101892.00;5062293;28;20467;-60
2022/08/27 05:30:12;;;;;;;7.35;3.20;;;;;;;16.31;89.77;101894.94;5064858;28;20055;-61
2022/08/27 05:32:38;;;;;;;7.93;3.35;;;;;;;16.39;89.37;101898.16;5062611;28;20016;-61
2022/08/27 05:35:04;;;;;;;10.73;3.88;;;;;;;16.53;89.07;101899.38;5064470;28;20035;-59
2022/08/27 05:37:32;;;;;;;4.78;2.95;;;;;;;16.75;88.33;101893.13;5062518;28;20073;-62
2022/08/27 05:39:58;;;;;;;8.07;2.70;;;;;;;17.02;87.76;101892.84;5063177;28;20309;-61
2022/08/27 05:42:24;;;;;;;5.50;2.80;;;;;;;17.14;86.15;101894.13;5044590;28;20035;-61
2022/08/27 05:44:49;;;;;;;8.13;3.50;;;;;;;17.19;86.13;101889.47;5064510;28;20031;-61
2022/08/27 05:47:15;;;;;;;6.57;2.63;;;;;;;17.25;85.60;101894.50;5063641;28;20471;-61
2022/08/27 05:49:40;;;;;;;7.22;2.97;;;;;;;17.30;85.35;101894.28;5063118;28;20028;-61
2022/08/27 05:52:12;;;;;;;8.75;2.90;;;;;;;17.51;84.83;101899.56;5063637;28;20107;-60
2022/08/27 05:54:38;;;;;;;5.85;2.72;;;;;;;17.57;84.13;101901.09;5061073;28;20036;-61
2022/08/27 05:57:05;;;;;;;5.55;2.72;;;;;;;17.53;84.31;101895.03;5063945;28;20028;-61
2022/08/27 06:02:14;;;;;;;2.80;2.47;;;;;;;17.62;83.73;101889.28;5063691;28;20124;-61
2022/08/27 06:04:40;;;;;;;4.68;2.70;;;;;;;17.73;83.90;101895.91;5061867;28;20124;-60
2022/08/27 06:07:08;;;;;;;5.38;2.63;;;;;;;17.88;83.66;101887.16;5065535;28;20020;-60
2022/08/27 06:09:33;;;;;;;5.32;2.30;;;;;;;18.10;82.29;101880.81;5065343;28;20523;-60
2022/08/27 06:11:59;;;;;;;4.43;2.28;;;;;;;18.16;82.36;101883.19;5067059;28;20024;-61
2022/08/27 06:14:25;;;;;;;4.97;2.53;;;;;;;18.19;81.58;101888.34;5066706;28;20482;-59
2022/08/27 06:16:50;;;;;;;10.85;3.03;;;;;;;18.24;81.54;101892.63;5067101;28;20081;-61
2022/08/27 06:19:16;;;;;;;7.30;2.20;;;;;;;18.37;81.37;101884.84;5048476;28;20029;-60
2022/08/27 06:21:41;;;;;;;7.75;2.58;;;;;;;18.29;81.63;101893.22;5068090;28;20029;-60
2022/08/27 06:24:07;;;;;;;8.20;2.97;;;;;;;18.35;82.05;101892.06;5065274;28;20025;-61
2022/08/27 06:26:33;;;;;;;6.85;2.53;;;;;;;18.49;81.19;101886.91;5066417;28;20568;-60
2022/08/27 06:29:03;;;;;;;4.80;2.90;;;;;;;18.64;81.36;101881.72;5063081;28;20120;-61
2022/08/27 06:31:29;;;;;;;4.93;2.10;;;;;;;18.85;79.66;101890.41;5056347;28;20344;-60
2022/08/27 06:34:00;;;;;;;6.05;2.65;;;;;;;18.89;79.47;101889.31;5059855;28;20027;-59
2022/08/27 06:36:26;;;;;;;8.65;3.17;;;;;;;19.01;79.02;101889.59;5049692;28;20036;-60
2022/08/27 06:38:52;;;;;;;4.78;3.10;;;;;;;19.01;79.79;101886.91;5065772;28;20044;-60
2022/08/27 06:41:21;;;;;;;5.35;2.75;;;;;;;19.05;79.45;101885.81;5048076;28;20035;-61
2022/08/27 06:43:46;;;;;;;3.95;2.55;;;;;;;19.26;79.12;101886.50;5066705;28;20021;-61
2022/08/27 06:46:15;;;;;;;5.55;2.70;;;;;;;19.43;79.07;101890.94;5065488;28;20122;-61
2022/08/27 06:48:43;;;;;;;7.63;2.47;;;;;;;19.50;78.60;101887.94;5067161;28;20029;-60
2022/08/27 06:51:12;;;;;;;7.95;2.67;;;;;;;19.53;78.76;101885.94;5066175;28;20390;-60
2022/08/27 06:53:38;;;;;;;6.28;2.70;;;;;;;19.55;79.22;101888.53;5066860;28;20054;-62
2022/08/27 06:56:04;;;;;;;9.05;3.00;;;;;;;19.77;79.12;101892.66;5043194;28;20032;-62
2022/08/27 06:58:30;;;;;;;8.90;3.05;;;;;;;19.78;78.98;101886.38;5067114;28;20052;-62
2022/08/27 07:00:55;;;;;;;8.18;2.80;;;;;;;20.15;77.66;101891.44;5065244;28;20025;-61
2022/08/27 07:03:20;;;;;;;4.78;2.92;;;;;;;20.28;77.81;101891.59;5067440;28;20056;-62
2022/08/27 07:05:46;;;;;;;7.93;2.85;;;;;;;20.50;76.33;101895.69;5065178;28;20024;-61
2022/08/27 07:08:11;;;;;;;7.10;2.85;;;;;;;20.58;76.50;101893.41;5067481;28;20028;-60
2022/08/27 07:10:37;;;;;;;14.18;3.47;;;;;;;20.65;76.33;101897.41;5064832;28;20032;-61
2022/08/27 07:13:03;;;;;;;6.35;2.95;;;;;;;20.81;76.44;101894.69;5067281;28;20046;-60
2022/08/27 07:15:28;;;;;;;6.80;3.35;;;;;;;20.74;76.60;101893.31;5065411;28;20024;-60
2022/08/27 07:17:54;;;;;;;8.65;3.17;;;;;;;20.75;77.69;101900.44;5056568;28;20386;-60
2022/08/27 07:20:20;;;;;;;9.77;3.60;;;;;;;20.93;76.20;101898.47;5057705;28;20078;-62
2022/08/27 07:22:46;;;;;;;6.25;3.08;;;;;;;21.20;75.80;101895.00;5054656;28;20024;-61
2022/08/27 07:25:19;;;;;;;7.13;2.83;;;;;;;21.41;74.62;101893.78;5058680;28;20407;-62
2022/08/27 07:27:46;;;;;;;8.60;3.40;;;;;;;21.42;74.04;101895.47;5066682;28;20078;-62
2022/08/27 07:30:12;;;;;;;5.38;2.78;;;;;;;21.51;74.62;101894.91;5064565;28;20421;-62
2022/08/27 07:32:38;;;;;;;7.43;3.13;;;;;;;21.56;74.04;101898.16;5058587;28;20028;-63
2022/08/27 07:35:08;;;;;;;5.20;2.92;;;;;;;21.69;71.83;101900.03;5055613;28;20013;-61
2022/08/27 07:37:35;;;;;;;5.28;3.05;;;;;;;21.61;71.73;101897.84;5039515;28;20082;-61
2022/08/27 07:40:04;;;;;;;6.95;2.90;;;;;;;21.85;69.83;101902.59;5062678;28;20024;-61
2022/08/27 07:45:13;;;;;;;6.15;3.20;;;;;;;22.06;68.71;101907.53;5064027;28;20085;-62
2022/08/27 07:47:38;;;;;;;6.70;3.08;;;;;;;21.96;68.64;101908.16;5063621;28;20115;-61
2022/08/27 07:50:04;;;;;;;6.32;2.70;;;;;;;21.98;68.10;101910.72;5065009;28;20127;-61
2022/08/27 07:52:29;;;;;;;8.85;2.78;;;;;;;22.05;68.67;101916.53;5062660;28;20056;-61
2022/08/27 07:54:55;;;;;;;7.05;2.67;;;;;;;22.06;68.04;101920.94;5063137;28;20020;-60
2022/08/27 07:57:20;;;;;;;5.53;2.05;;;;;;;21.98;64.78;101916.09;5063504;28;20028;-63
2022/08/27 07:59:47;;;;;;;7.90;2.28;;;;;;;21.93;64.86;101912.84;5064661;28;20429;-60
2022/08/27 08:02:12;;;;;;;4.70;2.03;;;;;;;21.92;65.09;101916.50;5063305;28;20394;-61
2022/08/27 08:04:37;;;;;;;4.63;2.05;;;;;;;22.08;64.26;101917.22;5063703;28;20031;-62
2022/08/27 08:07:03;;;;;;;4.40;1.70;;;;;;;22.03;64.67;101924.69;5045874;28;20032;-60
2022/08/27 08:09:30;;;;;;;12.82;2.20;;;;;;;21.90;63.97;101924.66;5045018;28;20043;-62
2022/08/27 08:11:56;;;;;;;6.95;1.80;;;;;;;22.00;63.46;101927.56;5063785;28;20036;-61
2022/08/27 08:14:21;;;;;;;5.38;1.80;;;;;;;21.99;64.15;101930.34;5065422;28;20024;-62
2022/08/27 08:16:47;;;;;;;5.28;1.60;;;;;;;21.98;64.27;101929.50;5060421;28;20841;-62
2022/08/27 08:19:12;;;;;;;6.53;1.60;;;;;;;22.18;63.90;101928.19;5045302;28;20337;-62
2022/08/27 08:21:38;;;;;;;7.57;1.70;;;;;;;22.11;61.56;101931.38;5043732;28;20087;-60
2022/08/27 08:24:04;;;;;;;4.55;1.70;;;;;;;22.15;62.08;101931.06;5064352;28;20032;-61
2022/08/27 08:26:30;;;;;;;7.95;1.55;;;;;;;22.03;60.62;101931.91;5063901;28;20356;-61
2022/08/27 08:28:55;;;;;;;6.35;1.90;;;;;;;22.40;58.45;101934.81;5046666;28;20115;-61
2022/08/27 08:31:22;;;;;;;4.50;1.80;;;;;;;22.15;59.54;101931.06;5064032;28;20028;-61
2022/08/27 08:33:48;;;;;;;8.27;2.05;;;;;;;22.31;57.90;101938.13;5064294;28;20382;-60
2022/08/27 08:36:15;;;;;;;6.18;1.48;;;;;;;22.04;56.87;101926.44;5064496;28;20034;-61
2022/08/27 08:38:41;;;;;;;3.47;1.38;;;;;;;22.12;56.85;101938.47;5063482;28;20028;-60
2022/08/27 08:41:34;;;;;;;9.90;2.00;;;;;;;22.64;55.95;101936.84;5064452;28;20450;-62
2022/08/27 08:44:02;;;;;;;5.13;1.70;;;;;;;22.54;55.24;101936.56;5064207;28;20032;-60
2022/08/27 08:46:39;;;;;;;5.47;1.67;;;;;;;22.17;55.92;101945.25;5064324;28;20036;-62
2022/08/27 08:49:12;;;;;;;5.13;1.67;;;;;;;22.16;57.13;101930.13;5045572;28;20020;-62
2022/08/27 08:51:41;;;;;;;3.85;1.67;;;;;;;22.13;58.21;101945.56;5046248;28;20024;-61
2022/08/27 08:54:09;;;;;;;4.10;1.42;;;;;;;22.06;58.92;101947.78;5045329;28;20027;-61
2022/08/27 08:56:48;;;;;;;5.37;1.73;;;;;;;22.02;59.31;101944.44;5046033;28;20040;-62
2022/08/27 08:59:27;;;;;;;5.38;1.75;;;;;;;22.13;60.31;101945.56;5063174;28;20079;-60
2022/08/27 09:01:53;;;;;;;5.78;1.60;;;;;;;22.42;58.91;101951.66;5046056;28;20158;-61
2022/08/27 09:04:19;;;;;;;5.57;1.73;;;;;;;22.27;58.64;101952.72;5062540;28;20098;-62
2022/08/27 09:06:57;;;;;;;10.80;1.70;;;;;;;22.61;58.72;101947.78;5044890;28;20032;-61
2022/08/27 09:09:29;;;;;;;4.18;1.63;;;;;;;22.83;58.18;101951.69;5062844;28;20488;-61
2022/08/27 09:11:59;;;;;;;5.70;1.65;;;;;;;22.97;56.95;101959.63;5064275;28;20386;-61
2022/08/27 09:14:33;;;;;;;6.25;1.48;;;;;;;23.25;56.08;101948.78;5044655;28;20056;-62
2022/08/27 09:17:02;;;;;;;5.82;1.55;;;;;;;23.09;57.69;101959.78;5044646;28;20032;-60
2022/08/27 09:19:28;;;;;;;8.90;1.55;;;;;;;23.54;55.97;101961.16;5056375;28;20101;-61
2022/08/27 09:22:00;;;;;;;3.25;1.38;;;;;;;23.23;56.79;101956.97;5060611;28;20417;-62
2022/08/27 09:24:39;;;;;;;5.65;1.33;;;;;;;23.50;55.96;101952.44;5033081;28;20071;-62
2022/08/27 09:27:05;;;;;;;4.70;1.40;;;;;;;23.41;56.75;101958.47;5031567;28;20036;-61
2022/08/27 09:29:30;;;;;;;6.05;1.50;;;;;;;23.57;56.25;101958.25;5053465;28;20028;-62
2022/08/27 09:32:04;;;;;;;8.48;1.95;;;;;;;23.64;55.09;101954.16;5052246;28;20050;-61
2022/08/27 09:34:36;;;;;;;4.45;1.42;;;;;;;23.37;55.89;101959.66;5053796;28;20025;-62
2022/08/27 09:37:06;;;;;;;4.97;1.48;;;;;;;23.60;56.05;101958.88;5055295;28;20024;-63
2022/08/27 09:39:37;;;;;;;5.95;1.80;;;;;;;23.73;55.46;101958.00;5036409;28;20029;-60
2022/08/27 09:42:03;;;;;;;3.35;1.58;;;;;;;23.60;55.86;101958.03;5041343;28;20028;-61
2022/08/27 09:44:31;;;;;;;3.38;1.52;;;;;;;23.39;55.00;101955.88;5041310;28;20928;-62
2022/08/27 09:46:59;;;;;;;5.27;1.33;;;;;;;23.37;56.13;101952.47;5058324;28;20551;-61
2022/08/27 09:49:25;;;;;;;4.47;1.60;;;;;;;23.27;57.01;101954.91;5055240;28;20395;-62
2022/08/27 09:51:51;;;;;;;4.00;1.45;;;;;;;22.95;56.72;101953.53;5059664;28;20028;-61
2022/08/27 09:54:37;;;;;;;4.10;1.85;;;;;;;23.00;56.44;101950.53;5032434;28;20032;-62
2022/08/27 09:57:02;;;;;;;3.47;1.40;;;;;;;23.52;55.07;101950.50;5042943;28;20029;-61
2022/08/27 09:59:36;;;;;;;6.32;1.60;;;;;;;24.26;53.06;101947.94;5038829;28;20426;-61
2022/08/27 10:02:14;;;;;;;3.70;1.30;;;;;;;24.14;54.66;101947.84;5042693;28;20069;-61
2022/08/27 10:05:02;;;;;;;7.82;1.63;;;;;;;23.83;55.37;101952.78;5062356;28;20082;-61
2022/08/27 10:07:45;;;;;;;5.32;1.40;;;;;;;24.29;53.97;101945.00;5060245;28;20024;-60
2022/08/27 10:10:16;;;;;;;9.10;1.52;;;;;;;24.28;54.08;101951.34;5037063;28;20032;-61
2022/08/27 10:13:04;;;;;;;7.13;1.70;;;;;;;23.90;53.67;101947.84;5043273;28;20027;-61
2022/08/27 10:15:37;;;;;;;8.60;1.65;;;;;;;24.00;54.32;101948.00;5043408;28;20467;-62
2022/08/27 10:18:11;;;;;;;6.43;1.70;;;;;;;24.21;53.80;101948.28;5043754;28;20118;-62
2022/08/27 10:20:55;;;;;;;5.03;1.50;;;;;;;24.61;53.35;101952.47;5039447;28;20025;-62
2022/08/27 10:23:49;;;;;;;7.38;1.70;;;;;;;24.69;51.41;101941.97;5057262;28;20013;-62
2022/08/27 10:26:23;;;;;;;5.65;1.70;;;;;;;24.45;52.50;101942.88;5048680;28;20033;-61
2022/08/27 10:29:04;;;;;;;7.70;1.60;;;;;;;24.04;53.27;101946.78;5029976;28;20082;-62
2022/08/27 10:32:04;;;;;;;4.88;1.20;;;;;;;24.33;52.09;101943.78;5043729;28;20081;-62
2022/08/27 10:34:58;;;;;;;6.28;1.92;;;;;;;23.95;53.12;101935.75;5062116;28;20529;-59
2022/08/27 10:37:27;;;;;;;7.40;1.42;;;;;;;24.31;53.86;101945.72;5054984;28;20037;-60
2022/08/27 10:40:11;;;;;;;8.18;1.85;;;;;;;24.49;53.60;101935.41;5060590;28;20024;-61
2022/08/27 10:42:49;;;;;;;3.92;1.60;;;;;;;24.46;51.62;101943.72;5044292;28;20017;-61
2022/08/27 10:45:42;;;;;;;7.05;1.58;;;;;;;24.08;52.28;101942.91;5062640;28;20137;-60
2022/08/27 10:48:14;;;;;;;5.10;1.67;;;;;;;24.02;54.02;101932.59;5061073;28;20028;-60
2022/08/27 10:51:04;;;;;;;3.72;1.45;;;;;;;24.51;51.79;101943.38;5039348;28;20116;-60
2022/08/27 10:53:33;;;;;;;5.32;1.70;;;;;;;24.60;49.93;101939.97;5059051;28;20029;-61
2022/08/27 10:56:12;;;;;;;4.15;1.50;;;;;;;24.99;51.87;101939.72;5060895;28;20016;-61
2022/08/27 10:59:00;;;;;;;2.53;1.33;;;;;;;24.97;50.56;101942.53;5047823;28;20390;-61
2022/08/27 11:01:37;;;;;;;6.03;1.50;;;;;;;24.93;50.47;101941.06;5047810;28;20103;-60
2022/08/27 11:04:09;;;;;;;6.88;1.80;;;;;;;25.21;51.51;101940.72;5048497;28;20491;-61
2022/08/27 11:06:42;;;;;;;8.27;1.77;;;;;;;24.71;50.98;101939.16;5047398;28;20320;-59
2022/08/27 11:09:20;;;;;;;7.07;1.70;;;;;;;24.72;51.28;101928.22;5047319;28;20056;-60
2022/08/27 11:11:53;;;;;;;5.93;1.90;;;;;;;24.80;51.90;101934.88;5064878;28;20016;-59
2022/08/27 11:14:29;;;;;;;5.88;1.40;;;;;;;24.63;51.54;101945.13;5065393;28;20036;-60
2022/08/27 11:17:02;;;;;;;8.95;2.65;;;;;;;24.02;53.52;101940.69;5066577;28;20085;-62
2022/08/27 11:19:40;;;;;;;4.18;1.40;;;;;;;23.94;53.64;101944.81;5046911;28;20035;-61
2022/08/27 11:22:46;;;;;;;8.43;2.05;;;;;;;24.07;53.06;101943.88;5046423;28;20099;-61
2022/08/27 11:25:27;;;;;;;5.20;1.70;;;;;;;24.20;54.22;101939.31;5038371;28;20071;-61
2022/08/27 11:27:53;;;;;;;5.05;1.48;;;;;;;24.17;54.19;101938.72;5047969;28;20038;-60
2022/08/27 11:30:37;;;;;;;7.80;1.92;;;;;;;23.88;54.12;101939.00;5047542;28;20032;-60
2022/08/27 11:33:14;;;;;;;4.20;1.40;;;;;;;24.02;52.86;101935.31;5048204;28;20119;-60
2022/08/27 11:35:57;;;;;;;6.03;1.63;;;;;;;23.84;53.90;101941.06;5064697;28;20027;-61
2022/08/27 11:38:42;;;;;;;4.95;1.48;;;;;;;24.51;52.74;101937.97;5067136;28;20104;-60
2022/08/27 11:41:36;;;;;;;6.93;1.38;;;;;;;25.24;52.78;101933.25;5065770;28;20040;-60
2022/08/27 11:44:02;;;;;;;6.32;1.65;;;;;;;25.17;50.61;101931.16;5064997;28;20119;-60